Latest Coastal Weather Observations for Mackay

IDQ60701

Issued at 11:02 pm EST Monday 8 August 2022 (issued every 10 minutes, with the page automatically refreshed every 10 minutes)

About coastal observations | Map of coastal stations | Coastal observations for QLD | Marine services | Other Formats
Station Details ID: 033119 Name: MACKAY M.O Lat: -21.12 Lon: 149.22 Height: 30.26 m
Data from the previous 72 hours. | See also: Recent months at Mackay
Date/Time
EST
Wind Sea
Height
m
Swell Vis
km
Cloud Weather Temp
°C
Press
MSL
hPa
Rain since
9am
mm
Dir  Spd
kts
Gust
kts
Height
m
Period
s
Dir
08/11:00pm SW 6 8 - - - - - Clear - 13.9 1019.8 0.0
08/10:30pm SW 6 7 - - - - - - - 14.2 1019.9 0.0
08/10:00pm SSW 6 7 - - - - - - - 15.0 1019.7 0.0
08/09:30pm SSW 5 7 - - - - - - - 15.4 1019.7 0.0
08/09:00pm SE 5 10 - - - - - - - 17.5 1019.5 0.0
08/08:30pm SE 5 9 - - - - - - - 17.7 1019.2 0.0
08/08:00pm SE 5 10 - - - - - - - 18.0 1019.0 0.0
08/07:30pm SE 6 9 - - - - - - - 18.2 1018.7 0.0
08/07:00pm ESE 6 10 - - - - - - - 18.2 1018.3 0.0
08/06:30pm ESE 7 11 - - - - - - - 18.4 1017.9 0.0
08/06:00pm ESE 7 11 - - - - - - - 18.5 1017.5 0.0
08/05:30pm ESE 8 13 - - - - - - - 18.7 1017.3 0.0
08/05:00pm ESE 8 14 - - - - - - - 19.1 1017.0 0.0
08/04:30pm ESE 9 14 - - - - - - - 19.4 1016.8 0.0
08/04:00pm ESE 9 15 - - - - - - - 19.7 1016.5 0.0
08/03:30pm ESE 9 14 - - - - - - - 19.9 1016.3 0.0
08/03:00pm SE 8 14 - - - - - - - 20.2 1016.3 0.0
08/02:30pm SE 10 18 - - - - - - - 20.4 1016.6 0.0
08/02:00pm SE 10 18 - - - - - - - 20.2 1016.9 0.0
08/01:30pm SE 11 17 - - - - - - - 20.5 1017.3 0.0
08/01:00pm SE 11 16 - - - - - - - 20.8 1017.6 0.0
08/12:30pm SSE 11 21 - - - - - - - 21.1 1018.1 0.0
08/12:00pm SSE 11 17 - - - - - - - 20.5 1018.4 0.0
08/11:30am SSE 12 18 - - - - - - - 20.7 1018.8 0.0
08/11:00am SSE 12 18 - - - - - - - 19.9 1019.3 0.0
08/10:30am SSE 11 19 - - - - - - - 20.2 1019.6 0.0
08/10:00am SSE 9 14 - - - - - - - 20.4 1019.9 0.0
08/09:30am SSE 11 15 - - - - - - - 19.4 1020.0 0.0
08/09:00am SSE 10 15 - - - - - - - 18.9 1019.8 0.0
08/08:30am S 8 14 - - - - - - - 18.5 1019.4 0.0
08/08:00am SSW 6 8 - - - - - - - 16.9 1019.0 0.0
08/07:30am SSW 6 8 - - - - - - - 15.2 1018.8 0.0
08/07:00am SSW 6 7 - - - - - - - 14.5 1018.5 0.0
08/06:30am SW 6 7 - - - - - - - 14.3 1018.4 0.0
08/06:00am SW 6 8 - - - - - - - 14.6 1017.8 0.0
08/05:30am SW 6 7 - - - - - - - 14.7 1017.3 0.0
08/05:00am SW 6 7 - - - - - - - 15.0 1017.0 0.0
08/04:30am SSW 6 7 - - - - - Cloudy - 15.3 1016.8 0.0
08/04:00am SSW 6 8 - - - - - Partly cloudy - 15.4 1016.7 0.0
08/03:30am SSW 7 8 - - - - - - - 15.7 1016.6 0.0
08/03:00am SSW 6 7 - - - - - Mostly clear - 16.0 1016.7 0.0
08/02:30am SSW 6 7 - - - - - - - 16.2 1016.8 0.0
08/02:00am SSW 6 7 - - - - - Partly cloudy - 16.5 1017.1 0.0
08/01:30am SSW 6 8 - - - - - Partly cloudy - 16.7 1017.1 0.0
08/01:00am SSW 6 7 - - - - - - - 17.0 1017.4 0.0
08/12:30am S 7 8 - - - - - Partly cloudy - 17.7 1017.5 0.0
08/12:00am S 7 9 - - - - - Cloudy - 17.9 1017.6 0.0
 
Date/Time
EST
Wind Sea
Height
m
Swell Vis
km
Cloud Weather Temp
°C
Press
MSL
hPa
Rain since
9am
mm
Dir  Spd
kts
Gust
kts
Height
m
Period
s
Dir
07/11:30pm S 6 8 - - - - - Partly cloudy - 18.0 1017.8 0.0
07/11:00pm SSE 7 11 - - - - - Partly cloudy - 18.8 1017.8 0.0
07/10:30pm SSE 7 10 - - - - - Partly cloudy - 18.9 1018.0 0.0
07/10:00pm SSE 7 11 - - - - - Partly cloudy - 19.1 1017.7 0.0
07/09:35pm SSE 7 11 - - - - - Cloudy - 19.3 1017.6 0.0
07/09:30pm SSE 7 10 - - - - - Cloudy - 19.3 1017.6 0.0
07/09:00pm SSE 7 11 - - - - - Cloudy - 19.3 1017.4 0.0
07/08:44pm SE 7 11 - - - - - Partly cloudy - 19.6 1017.3 0.0
07/08:30pm SSE 6 9 - - - - - Partly cloudy - 19.6 1017.3 0.0
07/08:00pm SE 6 9 - - - - - Partly cloudy - 19.5 1017.1 0.0
07/07:30pm SE 5 7 - - - - - Partly cloudy - 19.7 1016.5 0.0
07/07:00pm ESE 6 10 - - - - - Partly cloudy - 20.0 1016.3 0.0
07/06:30pm SE 5 10 - - - - - Partly cloudy - 20.0 1016.0 0.0
07/06:00pm SE 6 9 - - - - - Mostly cloudy - 20.0 1015.6 0.0
07/05:30pm ESE 6 11 - - - - - Cloudy - 20.1 1015.3 0.0
07/05:00pm ESE 7 9 - - - - - Partly cloudy - 20.2 1015.1 0.0
07/04:30pm SE 7 13 - - - - - Partly cloudy - 20.4 1015.0 0.0
07/04:00pm SE 7 13 - - - - - Cloudy - 20.5 1014.7 0.0
07/03:30pm SE 8 15 - - - - - Partly cloudy - 20.7 1014.5 0.0
07/03:00pm SE 9 15 - - - - - Cloudy - 21.1 1014.4 0.0
07/02:30pm SE 7 13 - - - - - Partly cloudy - 22.0 1014.5 0.0
07/02:00pm SE 10 16 - - - - - Partly cloudy - 21.3 1014.6 0.0
07/01:30pm SE 11 15 - - - - - Cloudy - 21.1 1015.0 0.0
07/01:00pm SE 9 14 - - - - - Partly cloudy - 21.4 1015.6 0.0
07/12:30pm ESE 9 13 - - - - - Partly cloudy - 21.5 1015.9 0.0
07/12:00pm ESE 7 11 - - - - - Mostly cloudy - 21.6 1016.4 0.0
07/11:30am ESE 6 10 - - - - - Partly cloudy - 22.7 1016.5 0.0
07/11:00am SE 7 12 - - - - - Partly cloudy - 21.9 1016.9 0.0
07/10:30am SE 7 9 - - - - - Partly cloudy - 22.3 1017.2 0.0
07/10:00am SE 6 9 - - - - - Partly cloudy - 22.0 1017.3 0.0
07/09:30am SE 6 10 - - - - - - - 21.6 1017.2 0.0
07/09:00am SSE 6 9 - - - - - Mostly cloudy - 20.7 1017.2 0.0
07/08:30am SE 3 5 - - - - - Partly cloudy - 20.4 1017.0 0.0
07/08:00am SE 4 6 - - - - - Partly cloudy - 20.1 1016.9 0.0
07/07:30am SE 4 6 - - - - - Partly cloudy - 19.4 1016.5 0.0
07/07:00am SE 5 6 - - - - - Partly cloudy - 18.9 1016.1 0.0
07/06:30am SSW 5 6 - - - - - Cloudy - 19.0 1016.0 0.0
07/06:00am SE 4 6 - - - - - Cloudy - 19.0 1015.3 0.0
07/05:30am SSE 4 5 - - - - - Cloudy - 18.9 1014.9 0.0
07/05:00am SSE 4 5 - - - - - Partly cloudy - 19.1 1014.5 0.0
07/04:30am S 4 5 - - - - - Partly cloudy - 18.9 1014.2 0.0
07/04:00am SSW 4 5 - - - - - Partly cloudy - 18.9 1014.1 0.0
07/03:30am SW 5 7 - - - - - Cloudy - 19.0 1014.0 0.0
07/03:00am SW 5 6 - - - - - Cloudy - 18.9 1014.0 0.0
07/02:30am SW 5 6 - - - - - Cloudy - 18.7 1013.9 0.0
07/02:00am SW 6 7 - - - - - - - 18.4 1014.0 0.0
07/01:30am SW 7 8 - - - - - - - 18.5 1014.2 0.0
07/01:00am SW 6 8 - - - - - - - 18.6 1014.3 0.0
07/12:30am WSW 6 7 - - - - - - - 18.7 1014.5 0.0
07/12:00am SW 6 7 - - - - - - - 18.9 1014.6 0.0
 
Date/Time
EST
Wind Sea
Height
m
Swell Vis
km
Cloud Weather Temp
°C
Press
MSL
hPa
Rain since
9am
mm
Dir  Spd
kts
Gust
kts
Height
m
Period
s
Dir
06/11:30pm WSW 6 7 - - - - - - - 18.9 1014.7 0.0
06/11:00pm SW 5 6 - - - - - - - 19.0 1014.8 0.0
06/10:30pm SW 5 6 - - - - - - - 19.1 1014.9 0.0
06/10:00pm SW 6 7 - - - - - - - 19.3 1014.9 0.0
06/09:30pm WSW 4 5 - - - - - - - 19.8 1014.5 0.0
06/09:00pm S 4 4 - - - - - - - 20.1 1014.4 0.0
06/08:30pm S 2 3 - - - - - - - 20.1 1014.3 0.0
06/08:00pm S 2 3 - - - - - - - 20.1 1014.1 0.0
06/07:30pm S 3 4 - - - - - - - 19.9 1013.8 0.0
06/07:00pm SSE 4 5 - - - - - - - 20.2 1013.5 0.0
06/06:30pm SE 4 5 - - - - - - - 20.4 1013.1 0.0
06/06:00pm SE 4 6 - - - - - Mostly clear - 20.7 1012.9 0.0
06/05:30pm SE 3 5 - - - - - - - 21.3 1012.7 0.0
06/05:00pm ENE 5 6 - - - - - - - 22.1 1012.3 0.0
06/04:30pm ENE 5 7 - - - - - - - 22.5 1012.0 0.0
06/04:00pm ENE 6 8 - - - - - - - 23.1 1012.0 0.0
06/03:30pm NE 5 10 - - - - - - - 24.3 1011.8 0.0
06/03:00pm NE 6 9 - - - - - - - 25.0 1011.9 0.0
06/02:30pm NNE 6 9 - - - - - - - 25.6 1012.0 0.0
06/02:00pm NNE 5 9 - - - - - - - 26.0 1012.2 0.0
06/01:30pm NNE 7 10 - - - - - - - 25.5 1012.5 0.0
06/01:00pm NNE 6 10 - - - - - - - 26.4 1012.7 0.0
06/12:30pm NNE 6 11 - - - - - - - 26.1 1012.9 0.0
06/12:00pm N 6 11 - - - - - - - 26.7 1013.1 0.0
06/11:30am N 7 10 - - - - - Partly cloudy - 26.1 1013.4 0.0
06/11:00am NNW 5 8 - - - - - Partly cloudy - 25.4 1013.9 0.0
06/10:30am NNW 6 8 - - - - - Cloudy - 24.1 1014.1 0.0
06/10:00am NW 5 9 - - - - - Cloudy - 22.8 1014.3 0.0
06/09:30am NNW 5 7 - - - - - Cloudy - 22.2 1014.5 0.0
06/09:00am NNW 6 9 - - - - - Cloudy - 21.9 1014.1 0.0
06/08:30am NW 6 7 - - - - - Cloudy - 21.3 1014.0 0.0
06/08:00am NNW 5 8 - - - - - Cloudy - 20.8 1013.6 0.0
06/07:30am NNW 6 10 - - - - - Cloudy - 20.4 1013.5 0.0
06/07:00am NNW 7 14 - - - - - Cloudy - 20.1 1013.3 0.0
06/06:30am NNW 5 8 - - - - - Cloudy - 19.9 1013.1 0.0
06/06:00am NNW 6 9 - - - - - Cloudy - 19.8 1012.6 0.0
06/05:30am NNW 4 6 - - - - - Cloudy - 19.8 1012.4 0.0
06/05:00am NNW 4 7 - - - - - Cloudy - 19.9 1012.1 0.0
06/04:43am NW 5 7 - - - - - Cloudy - 19.9 1012.0 0.0
06/04:30am NW 3 5 - - - - - Cloudy - 20.0 1012.0 0.0
06/04:00am NW 4 6 - - - - - Cloudy - 19.8 1011.9 0.0
06/03:30am NNW 5 7 - - - - - Partly cloudy - 19.6 1011.7 0.0
06/03:00am NW 5 8 - - - - - Cloudy - 19.7 1011.9 0.0
06/02:30am NNW 6 8 - - - - - Cloudy - 19.7 1011.9 0.0
06/02:00am NW 7 10 - - - - - Partly cloudy - 19.8 1012.2 0.0
06/01:30am NNW 7 10 - - - - - Cloudy - 20.0 1012.4 0.0
06/01:00am NNW 8 13 - - - - - Partly cloudy - 20.0 1012.4 0.0
06/12:30am N 6 9 - - - - - Cloudy - 20.1 1013.1 0.0
06/12:00am N 4 7 - - - - - Cloudy - 19.9 1013.2 0.0
 
Date/Time
EST
Wind Sea
Height
m
Swell Vis
km
Cloud Weather Temp
°C
Press
MSL
hPa
Rain since
9am
mm
Dir  Spd
kts
Gust
kts
Height
m
Period
s
Dir
05/11:30pm N 4 5 - - - - - Partly cloudy - 19.9 1013.1 0.0
05/11:25pm N 4 5 - - - - - Partly cloudy - 19.9 1013.2 0.0
05/11:02pm N 4 5 - - - - - Partly cloudy - 19.9 1013.2 0.0

Other formats

Comma delimited format used in spreadsheet applications
http://www.bom.gov.au/fwo/IDQ60701/IDQ60701.94367.axf

JavaScript Object Notation format (JSON) in row-major order
http://www.bom.gov.au/fwo/IDQ60701/IDQ60701.94367.json

Data quality

Most of these data are generated automatically and are frequently updated. Quality checks on data are not normally performed. It is possible for incorrect values to appear. Refer to information at About Latest Weather Observations and please check the disclaimer before using these data.